createdAt,value
2018-09-05T00:00:28.708Z,16.28
2018-09-05T00:02:58.284Z,16.29
2018-09-05T00:05:27.200Z,16.20
2018-09-05T00:07:56.275Z,16.23
2018-09-05T00:10:25.209Z,16.25
2018-09-05T00:12:54.152Z,16.22
2018-09-05T00:15:23.189Z,16.16
2018-09-05T00:17:52.284Z,16.14
2018-09-05T00:20:21.278Z,16.12
2018-09-05T00:22:50.220Z,16.13
2018-09-05T00:25:19.161Z,16.14
2018-09-05T00:27:48.113Z,16.15
2018-09-05T00:30:17.044Z,16.13
2018-09-05T00:32:45.973Z,16.10
2018-09-05T00:35:14.902Z,16.12
2018-09-05T00:37:43.838Z,16.08
2018-09-05T00:40:12.796Z,16.09
2018-09-05T00:42:41.902Z,16.04
2018-09-05T00:45:10.897Z,15.96
2018-09-05T00:47:40.680Z,15.87
2018-09-05T00:50:09.617Z,15.78
2018-09-05T00:52:38.676Z,15.77
2018-09-05T00:55:07.710Z,15.71
2018-09-05T00:57:36.635Z,15.64
2018-09-05T01:00:05.838Z,15.62
2018-09-05T01:02:34.810Z,15.60
2018-09-05T01:05:03.806Z,15.60
2018-09-05T01:07:32.739Z,15.55
2018-09-05T01:10:01.687Z,15.60
2018-09-05T01:12:32.253Z,15.63
2018-09-05T01:15:01.214Z,15.61
2018-09-05T01:17:30.257Z,15.62
2018-09-05T01:19:59.221Z,15.63
2018-09-05T01:22:28.196Z,15.55
2018-09-05T01:24:57.202Z,15.56
2018-09-05T01:27:26.134Z,15.59
2018-09-05T01:29:57.065Z,15.63
2018-09-05T01:32:26.026Z,15.63
2018-09-05T01:34:54.968Z,15.64
2018-09-05T01:37:23.949Z,15.61
2018-09-05T01:39:52.894Z,15.56
2018-09-05T01:42:21.861Z,15.54
2018-09-05T01:44:50.834Z,15.54
2018-09-05T01:47:19.827Z,15.58
2018-09-05T01:49:48.835Z,15.62
2018-09-05T01:52:17.762Z,15.72
2018-09-05T01:54:46.749Z,15.71
2018-09-05T01:57:15.742Z,15.68
2018-09-05T01:59:44.733Z,15.68
2018-09-05T02:02:14.170Z,15.63
2018-09-05T02:04:43.108Z,15.56
2018-09-05T02:07:12.047Z,15.58
2018-09-05T02:09:40.984Z,15.54
2018-09-05T02:12:09.941Z,15.52
2018-09-05T02:14:38.845Z,15.56
2018-09-05T02:17:07.809Z,15.51
2018-09-05T02:19:36.772Z,15.45
2018-09-05T02:22:05.828Z,15.28
2018-09-05T02:24:34.907Z,15.25
2018-09-05T02:27:03.875Z,15.22
2018-09-05T02:29:32.957Z,15.12
2018-09-05T02:32:02.274Z,15.09
2018-09-05T02:34:31.225Z,15.12
2018-09-05T02:37:00.184Z,15.06
2018-09-05T02:39:29.134Z,15.01
2018-09-05T02:41:58.145Z,15.00
2018-09-05T02:47:09.043Z,14.86
2018-09-05T02:49:38.068Z,14.84
2018-09-05T02:52:07.081Z,14.81
2018-09-05T02:54:36.103Z,14.79
2018-09-05T02:57:05.238Z,14.78
2018-09-05T02:59:34.188Z,14.74
2018-09-05T03:02:03.360Z,14.68
2018-09-05T03:04:32.332Z,14.75
2018-09-05T03:07:01.302Z,14.78
2018-09-05T03:09:30.347Z,14.69
2018-09-05T03:11:59.388Z,14.74
2018-09-05T03:14:28.332Z,14.67
2018-09-05T03:16:57.318Z,14.69
2018-09-05T03:19:26.272Z,14.67
2018-09-05T03:21:55.414Z,14.61
2018-09-05T03:24:24.340Z,14.57
2018-09-05T03:26:53.918Z,14.53
2018-09-05T03:29:23.042Z,14.54
2018-09-05T03:31:52.102Z,14.61
2018-09-05T03:34:21.059Z,14.63
2018-09-05T03:36:50.072Z,14.70
2018-09-05T03:39:19.014Z,14.62
2018-09-05T03:41:48.027Z,14.68
2018-09-05T03:44:16.984Z,14.67
2018-09-05T03:46:45.949Z,14.59
2018-09-05T03:49:14.917Z,14.59
2018-09-05T03:51:43.884Z,14.63
2018-09-05T03:54:12.839Z,14.63
2018-09-05T03:56:41.791Z,14.58
2018-09-05T03:59:10.715Z,14.52
2018-09-05T04:01:39.681Z,14.49
2018-09-05T04:04:08.701Z,14.45
2018-09-05T04:06:37.653Z,14.47
2018-09-05T04:09:08.088Z,14.49
2018-09-05T04:11:37.386Z,14.46
2018-09-05T04:14:06.378Z,14.48
2018-09-05T04:16:35.342Z,14.44
2018-09-05T04:19:04.328Z,14.48
2018-09-05T04:21:33.352Z,14.47
2018-09-05T04:24:02.351Z,14.53
2018-09-05T04:26:31.462Z,14.45
2018-09-05T04:29:00.641Z,14.42
2018-09-05T04:31:29.638Z,14.42
2018-09-05T04:33:58.579Z,14.43
2018-09-05T04:36:27.531Z,14.48
2018-09-05T04:38:56.500Z,14.48
2018-09-05T04:41:25.560Z,14.52
2018-09-05T04:43:54.533Z,14.59
2018-09-05T04:46:23.452Z,14.65
2018-09-05T04:48:52.421Z,14.68
2018-09-05T04:51:21.453Z,14.73
2018-09-05T04:53:51.453Z,14.76
2018-09-05T04:56:20.405Z,14.80
2018-09-05T04:58:54.156Z,14.74
2018-09-05T05:01:23.141Z,14.73
2018-09-05T05:03:52.095Z,14.74
2018-09-05T05:06:21.078Z,14.78
2018-09-05T05:08:50.047Z,14.73
2018-09-05T05:11:19.047Z,14.76
2018-09-05T05:13:48.120Z,14.81
2018-09-05T05:16:17.035Z,14.84
2018-09-05T05:18:46.003Z,14.81
2018-09-05T05:21:14.941Z,14.91
2018-09-05T05:23:43.938Z,14.89
2018-09-05T05:26:12.902Z,14.93
2018-09-05T05:28:41.858Z,14.93
2018-09-05T05:31:10.804Z,15.03
2018-09-05T05:33:39.780Z,15.00
2018-09-05T05:36:08.738Z,15.04
2018-09-05T05:38:37.709Z,15.08
2018-09-05T05:41:07.007Z,15.10
2018-09-05T05:43:35.909Z,15.15
2018-09-05T05:46:04.882Z,15.16
2018-09-05T05:48:33.815Z,15.20
2018-09-05T05:51:03.009Z,15.20
2018-09-05T05:53:32.019Z,15.22
2018-09-05T05:56:01.168Z,15.23
2018-09-05T05:58:30.324Z,15.36
2018-09-05T06:00:59.672Z,15.46
2018-09-05T06:03:28.535Z,15.46
2018-09-05T06:05:57.540Z,15.53
2018-09-05T06:08:26.492Z,15.69
2018-09-05T06:10:55.469Z,15.98
2018-09-05T06:13:24.424Z,16.48
2018-09-05T06:15:53.352Z,16.86
2018-09-05T06:18:22.322Z,17.63
2018-09-05T06:20:51.391Z,18.91
2018-09-05T06:23:20.413Z,19.76
2018-09-05T06:25:49.365Z,20.85
2018-09-05T06:28:18.477Z,20.83
2018-09-05T06:30:47.521Z,21.48
2018-09-05T06:33:18.368Z,21.69
2018-09-05T06:35:48.038Z,21.91
2018-09-05T06:38:17.055Z,21.75
2018-09-05T06:40:45.975Z,22.08
2018-09-05T06:43:14.960Z,22.50
2018-09-05T06:45:44.110Z,22.74
2018-09-05T06:48:13.119Z,22.73
2018-09-05T06:50:42.108Z,23.26
2018-09-05T06:53:11.072Z,22.96
2018-09-05T06:55:40.032Z,23.22
2018-09-05T06:58:09.024Z,23.06
2018-09-05T07:00:38.024Z,23.53
2018-09-05T07:03:07.066Z,23.83
2018-09-05T07:05:36.046Z,23.40
2018-09-05T07:08:05.069Z,24.26
2018-09-05T07:10:34.026Z,24.38
2018-09-05T07:13:02.961Z,25.28
2018-09-05T07:15:31.956Z,25.89
2018-09-05T07:18:01.078Z,26.09
2018-09-05T07:20:30.051Z,26.43
2018-09-05T07:22:58.990Z,26.92
2018-09-05T07:25:27.940Z,27.35
2018-09-05T07:27:56.877Z,26.60
2018-09-05T07:30:25.910Z,25.67
2018-09-05T07:32:54.800Z,25.68
2018-09-05T07:35:23.751Z,26.54
2018-09-05T07:37:52.695Z,26.36
2018-09-05T07:40:21.657Z,26.99
2018-09-05T07:42:56.435Z,27.15
2018-09-05T07:45:25.431Z,26.55
2018-09-05T07:47:54.349Z,26.70
2018-09-05T07:50:23.318Z,25.93
2018-09-05T07:52:52.267Z,25.86
2018-09-05T07:55:21.190Z,26.33
2018-09-05T07:57:50.174Z,26.92
2018-09-05T08:00:19.175Z,26.14
2018-09-05T08:02:48.164Z,26.10
2018-09-05T08:05:17.151Z,25.94
2018-09-05T08:07:46.091Z,27.27
2018-09-05T08:10:15.206Z,27.24
2018-09-05T08:12:44.128Z,26.62
2018-09-05T08:15:13.096Z,27.21
2018-09-05T08:17:42.152Z,28.20
2018-09-05T08:20:11.191Z,28.53
2018-09-05T08:22:40.223Z,28.06
2018-09-05T08:25:09.158Z,28.48
2018-09-05T08:27:38.143Z,29.07
2018-09-05T08:30:07.145Z,28.88
2018-09-05T08:32:36.101Z,28.46
2018-09-05T08:35:05.205Z,28.95
2018-09-05T08:37:34.344Z,28.78
2018-09-05T08:40:03.097Z,31.17
2018-09-05T08:42:34.911Z,30.77
2018-09-05T08:45:04.938Z,29.78
2018-09-05T08:47:34.346Z,28.36
2018-09-05T08:50:03.289Z,27.73
2018-09-05T08:52:32.252Z,26.60
2018-09-05T08:55:01.289Z,26.67
2018-09-05T08:57:30.168Z,26.79
2018-09-05T08:59:59.106Z,27.95
2018-09-05T09:02:28.046Z,29.53
2018-09-05T09:04:56.991Z,30.57
2018-09-05T09:07:26.038Z,30.51
2018-09-05T09:09:55.286Z,30.70
2018-09-05T09:12:24.236Z,31.35
2018-09-05T09:14:53.189Z,32.51
2018-09-05T09:17:22.169Z,31.23
2018-09-05T09:19:51.133Z,31.23
2018-09-05T09:22:20.072Z,31.39
2018-09-05T09:24:49.068Z,31.39
2018-09-05T09:27:18.090Z,30.81
2018-09-05T09:29:47.105Z,31.08
2018-09-05T09:32:16.095Z,30.43
2018-09-05T09:34:45.070Z,31.28
2018-09-05T09:37:14.030Z,31.21
2018-09-05T09:39:43.327Z,31.76
2018-09-05T09:42:12.284Z,31.64
2018-09-05T09:44:41.211Z,31.67
2018-09-05T09:47:10.170Z,31.57
2018-09-05T09:49:39.173Z,31.44
2018-09-05T09:52:13.559Z,31.05
2018-09-05T09:54:42.498Z,31.46
2018-09-05T09:57:11.569Z,31.56
2018-09-05T09:59:40.571Z,32.27
2018-09-05T10:02:15.201Z,32.07
2018-09-05T10:04:49.499Z,31.83
2018-09-05T10:07:23.771Z,31.29
2018-09-05T10:09:54.813Z,31.01
2018-09-05T10:12:28.975Z,31.65
2018-09-05T10:15:02.621Z,31.68
2018-09-05T10:17:34.074Z,31.09
2018-09-05T10:20:03.273Z,30.88
2018-09-05T10:22:32.749Z,30.75
2018-09-05T10:25:01.741Z,31.73
2018-09-05T10:27:30.754Z,31.20
2018-09-05T10:29:59.733Z,31.62
2018-09-05T10:32:28.673Z,32.47
2018-09-05T10:34:57.606Z,33.19
2018-09-05T10:37:26.534Z,32.99
2018-09-05T10:39:55.476Z,32.95
2018-09-05T10:42:24.442Z,34.20
2018-09-05T10:44:53.479Z,34.62
2018-09-05T10:47:22.401Z,34.45
2018-09-05T10:49:51.347Z,33.36
2018-09-05T10:52:20.272Z,33.61
2018-09-05T10:54:49.205Z,32.82
2018-09-05T10:57:18.120Z,33.28
2018-09-05T10:59:47.051Z,33.60
2018-09-05T11:02:16.020Z,33.66
2018-09-05T11:04:44.924Z,33.50
2018-09-05T11:07:14.505Z,33.49
2018-09-05T11:09:43.452Z,33.54
2018-09-05T11:12:12.383Z,33.22
2018-09-05T11:14:41.582Z,32.19
2018-09-05T11:17:10.514Z,30.61
2018-09-05T11:19:39.484Z,30.16
2018-09-05T11:22:08.461Z,29.57
2018-09-05T11:24:37.410Z,28.73
2018-09-05T11:27:06.412Z,28.28
2018-09-05T11:29:35.361Z,28.27
2018-09-05T11:32:04.296Z,28.33
2018-09-05T11:34:33.237Z,27.88
2018-09-05T11:37:02.215Z,28.05
2018-09-05T11:39:31.123Z,28.12
2018-09-05T11:42:00.090Z,29.32
2018-09-05T11:44:29.027Z,31.12
2018-09-05T11:46:57.971Z,32.32
2018-09-05T11:49:26.924Z,32.55
2018-09-05T11:51:55.863Z,33.35
2018-09-05T11:54:24.794Z,32.56
2018-09-05T11:56:53.726Z,33.02
2018-09-05T11:59:22.647Z,31.66
2018-09-05T12:01:51.557Z,30.74
2018-09-05T12:04:20.520Z,30.15
2018-09-05T12:06:49.468Z,29.64
2018-09-05T12:09:19.076Z,29.03
2018-09-05T12:11:48.145Z,28.64
2018-09-05T12:14:17.008Z,29.07
2018-09-05T12:16:45.937Z,30.30
2018-09-05T12:19:14.906Z,31.57
2018-09-05T12:21:43.845Z,32.98
2018-09-05T12:24:12.772Z,32.14
2018-09-05T12:26:41.725Z,33.19
2018-09-05T12:29:11.883Z,33.72
2018-09-05T12:31:41.572Z,33.29
2018-09-05T12:34:10.892Z,34.01
2018-09-05T12:36:39.895Z,34.37
2018-09-05T12:39:11.337Z,34.48
2018-09-05T12:41:40.548Z,34.52
2018-09-05T12:44:09.696Z,34.89
2018-09-05T12:46:38.932Z,34.46
2018-09-05T12:49:07.881Z,35.00
2018-09-05T12:51:37.019Z,34.61
2018-09-05T12:54:06.421Z,33.73
2018-09-05T12:56:35.361Z,33.44
2018-09-05T12:59:04.284Z,34.35
2018-09-05T13:01:33.222Z,34.11
2018-09-05T13:04:02.425Z,34.20
2018-09-05T13:06:31.398Z,34.10
2018-09-05T13:09:00.359Z,34.60
2018-09-05T13:11:29.490Z,34.53
2018-09-05T13:13:58.410Z,35.18
2018-09-05T13:16:27.368Z,34.40
2018-09-05T13:18:56.329Z,34.29
2018-09-05T13:21:25.251Z,34.14
2018-09-05T13:23:54.184Z,34.09
2018-09-05T13:26:23.106Z,33.44
2018-09-05T13:28:52.045Z,33.08
2018-09-05T13:31:20.988Z,32.76
2018-09-05T13:33:49.903Z,32.71
2018-09-05T13:36:18.850Z,33.49
2018-09-05T13:38:47.785Z,34.64
2018-09-05T13:41:16.842Z,34.87
2018-09-05T13:43:45.776Z,33.95
2018-09-05T13:46:14.713Z,33.67
2018-09-05T13:48:43.641Z,32.83
2018-09-05T13:51:12.612Z,33.34
2018-09-05T13:53:41.550Z,33.14
2018-09-05T13:56:10.656Z,34.05
2018-09-05T13:58:39.608Z,33.88
2018-09-05T14:01:08.538Z,34.20
2018-09-05T14:03:37.471Z,33.81
2018-09-05T14:06:06.433Z,33.53
2018-09-05T14:08:35.410Z,33.21
2018-09-05T14:11:04.339Z,33.08
2018-09-05T14:13:33.441Z,33.52
2018-09-05T14:16:02.338Z,33.23
2018-09-05T14:18:31.253Z,33.01
2018-09-05T14:21:00.198Z,32.94
2018-09-05T14:23:29.282Z,32.66
2018-09-05T14:25:58.248Z,33.00
2018-09-05T14:28:27.211Z,33.81
2018-09-05T14:30:56.477Z,33.41
2018-09-05T14:33:25.443Z,33.24
2018-09-05T14:35:54.784Z,32.82
2018-09-05T14:38:23.728Z,33.07
2018-09-05T14:40:52.666Z,32.93
2018-09-05T14:43:22.188Z,32.50
2018-09-05T14:45:51.156Z,32.19
2018-09-05T14:48:20.180Z,31.36
2018-09-05T14:50:49.320Z,30.92
2018-09-05T14:53:18.252Z,30.46
2018-09-05T14:55:47.273Z,30.59
2018-09-05T14:58:16.258Z,31.10
2018-09-05T15:00:45.202Z,30.75
2018-09-05T15:03:14.165Z,31.16
2018-09-05T15:05:43.083Z,31.27
2018-09-05T15:08:12.123Z,31.60
2018-09-05T15:10:41.091Z,30.92
2018-09-05T15:13:10.021Z,30.98
2018-09-05T15:15:39.019Z,31.28
2018-09-05T15:18:07.936Z,31.45
2018-09-05T15:20:36.973Z,30.89
2018-09-05T15:23:06.353Z,30.90
2018-09-05T15:25:35.490Z,31.17
2018-09-05T15:28:04.412Z,30.79
2018-09-05T15:30:33.333Z,30.77
2018-09-05T15:33:02.321Z,30.99
2018-09-05T15:35:31.296Z,30.79
2018-09-05T15:38:00.270Z,31.20
2018-09-05T15:40:29.366Z,31.08
2018-09-05T15:42:58.416Z,30.84
2018-09-05T15:45:28.252Z,30.92
2018-09-05T15:47:57.213Z,30.78
2018-09-05T15:50:26.154Z,29.94
2018-09-05T15:52:55.097Z,30.32
2018-09-05T15:55:24.414Z,30.18
2018-09-05T15:57:53.352Z,30.23
2018-09-05T16:00:22.304Z,29.97
2018-09-05T16:02:51.352Z,29.71
2018-09-05T16:05:20.280Z,29.79
2018-09-05T16:07:49.318Z,29.73
2018-09-05T16:10:18.316Z,29.36
2018-09-05T16:12:47.173Z,29.16
2018-09-05T16:15:16.280Z,29.01
2018-09-05T16:17:45.165Z,28.87
2018-09-05T16:20:14.131Z,28.81
2018-09-05T16:22:43.147Z,28.65
2018-09-05T16:25:12.240Z,28.36
2018-09-05T16:27:41.186Z,28.11
2018-09-05T16:30:10.162Z,28.54
2018-09-05T16:32:39.109Z,28.22
2018-09-05T16:35:08.042Z,28.14
2018-09-05T16:37:36.957Z,27.66
2018-09-05T16:40:06.019Z,27.53
2018-09-05T16:42:34.944Z,27.39
2018-09-05T16:45:03.907Z,27.18
2018-09-05T16:47:32.913Z,27.17
2018-09-05T16:50:01.904Z,26.73
2018-09-05T16:52:31.172Z,26.73
2018-09-05T16:55:00.352Z,26.56
2018-09-05T16:57:29.284Z,26.30
2018-09-05T16:59:58.224Z,26.14
2018-09-05T17:02:27.201Z,25.90
2018-09-05T17:04:56.217Z,25.69
2018-09-05T17:07:25.208Z,25.66
2018-09-05T17:09:54.257Z,25.54
2018-09-05T17:12:23.142Z,25.38
2018-09-05T17:14:52.195Z,25.20
2018-09-05T17:17:21.108Z,25.06
2018-09-05T17:19:50.085Z,24.97
2018-09-05T17:22:19.025Z,24.71
2018-09-05T17:24:48.037Z,24.59
2018-09-05T17:27:17.107Z,24.36
2018-09-05T17:29:46.045Z,24.21
2018-09-05T17:32:15.022Z,24.13
2018-09-05T17:34:44.041Z,24.08
2018-09-05T17:37:13.043Z,23.90
2018-09-05T17:39:42.140Z,23.71
2018-09-05T17:42:10.755Z,23.65
2018-09-05T17:44:39.424Z,23.44
2018-09-05T17:47:08.377Z,23.22
2018-09-05T17:49:37.367Z,23.04
2018-09-05T17:52:06.318Z,23.01
2018-09-05T17:54:35.272Z,22.83
2018-09-05T17:57:04.346Z,22.73
2018-09-05T17:59:33.343Z,22.67
2018-09-05T18:02:02.377Z,22.52
2018-09-05T18:04:31.376Z,22.46
2018-09-05T18:07:00.354Z,22.36
2018-09-05T18:09:29.320Z,22.27
2018-09-05T18:11:58.351Z,22.24
2018-09-05T18:14:27.313Z,22.17
2018-09-05T18:16:56.334Z,22.13
2018-09-05T18:19:25.313Z,22.07
2018-09-05T18:21:54.331Z,22.10
2018-09-05T18:24:23.359Z,22.02
2018-09-05T18:26:52.200Z,21.96
2018-09-05T18:29:21.315Z,21.96
2018-09-05T18:31:50.348Z,21.84
2018-09-05T18:34:19.316Z,21.84
2018-09-05T18:36:48.295Z,21.75
2018-09-05T18:39:17.217Z,21.66
2018-09-05T18:41:46.168Z,21.58
2018-09-05T18:44:15.122Z,21.56
2018-09-05T18:46:44.107Z,21.44
2018-09-05T18:49:13.090Z,21.34
2018-09-05T18:51:41.969Z,21.27
2018-09-05T18:54:10.989Z,21.20
2018-09-05T18:56:39.933Z,21.20
2018-09-05T18:59:08.991Z,21.06
2018-09-05T19:01:38.065Z,21.05
2018-09-05T19:04:07.265Z,21.01
2018-09-05T19:06:36.254Z,20.94
2018-09-05T19:09:08.887Z,20.90
2018-09-05T19:11:38.055Z,20.83
2018-09-05T19:14:07.170Z,20.80
2018-09-05T19:16:36.105Z,20.73
2018-09-05T19:19:05.164Z,20.69
2018-09-05T19:21:34.130Z,20.62
2018-09-05T19:24:04.957Z,20.56
2018-09-05T19:26:34.013Z,20.54
2018-09-05T19:29:03.176Z,20.47
2018-09-05T19:31:32.101Z,20.47
2018-09-05T19:34:01.105Z,20.47
2018-09-05T19:36:30.127Z,20.50
2018-09-05T19:38:59.130Z,20.46
2018-09-05T19:41:28.052Z,20.43
2018-09-05T19:43:57.132Z,20.42
2018-09-05T19:46:26.119Z,20.27
2018-09-05T19:48:55.093Z,20.25
2018-09-05T19:51:24.069Z,20.12
2018-09-05T19:53:53.074Z,20.01
2018-09-05T19:56:22.266Z,19.93
2018-09-05T19:58:51.225Z,19.89
2018-09-05T20:01:20.269Z,19.73
2018-09-05T20:03:49.313Z,19.68
2018-09-05T20:06:18.339Z,19.62
2018-09-05T20:08:47.509Z,19.56
2018-09-05T20:11:16.481Z,19.52
2018-09-05T20:13:45.451Z,19.55
2018-09-05T20:16:15.408Z,19.50
2018-09-05T20:18:44.391Z,19.45
2018-09-05T20:21:13.352Z,19.40
2018-09-05T20:23:42.289Z,19.28
2018-09-05T20:26:11.414Z,19.01
2018-09-05T20:28:40.532Z,18.97
2018-09-05T20:31:09.532Z,18.80
2018-09-05T20:33:38.580Z,18.72
2018-09-05T20:36:07.550Z,18.67
2018-09-05T20:38:36.554Z,18.63
2018-09-05T20:41:05.510Z,18.62
2018-09-05T20:43:34.450Z,18.58
2018-09-05T20:46:03.464Z,18.50
2018-09-05T20:48:32.487Z,18.55
2018-09-05T20:51:01.450Z,18.49
2018-09-05T20:53:30.370Z,18.43
2018-09-05T20:55:59.378Z,18.39
2018-09-05T20:58:28.602Z,18.30
2018-09-05T21:00:57.872Z,18.27
2018-09-05T21:03:26.825Z,18.23
2018-09-05T21:05:55.893Z,18.11
2018-09-05T21:08:24.864Z,18.11
2018-09-05T21:10:53.802Z,17.98
2018-09-05T21:13:22.825Z,17.92
2018-09-05T21:15:51.838Z,17.88
2018-09-05T21:18:20.794Z,17.92
2018-09-05T21:20:50.365Z,18.00
2018-09-05T21:23:19.279Z,17.91
2018-09-05T21:25:48.193Z,17.92
2018-09-05T21:28:17.139Z,17.90
2018-09-05T21:30:46.134Z,17.83
2018-09-05T21:33:15.066Z,17.85
2018-09-05T21:35:44.058Z,17.78
2018-09-05T21:38:12.994Z,17.82
2018-09-05T21:40:41.980Z,17.68
2018-09-05T21:43:10.950Z,17.57
2018-09-05T21:45:39.889Z,17.62
2018-09-05T21:48:08.819Z,17.62
2018-09-05T21:50:37.925Z,17.65
2018-09-05T21:53:06.903Z,17.66
2018-09-05T21:55:35.910Z,17.64
2018-09-05T21:58:04.794Z,17.66
2018-09-05T22:00:33.699Z,17.62
2018-09-05T22:03:02.624Z,17.63
2018-09-05T22:05:31.595Z,17.60
2018-09-05T22:08:00.524Z,17.51
2018-09-05T22:10:29.465Z,17.54
2018-09-05T22:12:58.478Z,17.55
2018-09-05T22:15:30.847Z,17.56
2018-09-05T22:17:59.773Z,17.50
2018-09-05T22:20:28.741Z,17.51
2018-09-05T22:22:57.703Z,17.48
2018-09-05T22:25:26.625Z,17.42
2018-09-05T22:27:55.517Z,17.40
2018-09-05T22:30:24.409Z,17.40
2018-09-05T22:32:53.362Z,17.38
2018-09-05T22:35:22.279Z,17.38
2018-09-05T22:37:51.221Z,17.35
2018-09-05T22:40:20.241Z,17.33
2018-09-05T22:43:00.522Z,17.29
2018-09-05T22:45:40.966Z,17.26
2018-09-05T22:48:29.230Z,17.14
2018-09-05T22:51:13.698Z,17.11
2018-09-05T22:53:59.046Z,17.08
2018-09-05T22:57:58.369Z,16.98
2018-09-05T23:00:41.300Z,16.88
2018-09-05T23:03:27.137Z,16.79
2018-09-05T23:08:11.450Z,16.78
2018-09-05T23:10:51.809Z,16.68
2018-09-05T23:13:34.014Z,16.61
2018-09-05T23:16:16.303Z,16.60
2018-09-05T23:19:25.878Z,16.51
2018-09-05T23:21:54.825Z,16.48
2018-09-05T23:24:24.857Z,16.46
2018-09-05T23:27:00.539Z,16.38
2018-09-05T23:29:29.466Z,16.35
2018-09-05T23:31:58.490Z,16.33
2018-09-05T23:34:27.482Z,16.26
2018-09-05T23:36:56.474Z,16.22
2018-09-05T23:39:25.388Z,16.19
2018-09-05T23:41:54.310Z,16.19
2018-09-05T23:44:23.242Z,16.19
2018-09-05T23:46:52.244Z,16.17
2018-09-05T23:49:21.154Z,16.17
2018-09-05T23:51:50.084Z,16.09
2018-09-05T23:54:18.981Z,16.09
2018-09-05T23:56:47.935Z,16.05
2018-09-05T23:59:16.930Z,16.04
